sensor_id;sensor_type;location;lat;lon;timestamp;temperature;humidity
20740;DHT22;10530;49.968;19.844;2023-04-25T00:03:26;10.50;99.90
20740;DHT22;10530;49.968;19.844;2023-04-25T00:08:30;10.30;99.90
20740;DHT22;10530;49.968;19.844;2023-04-25T00:13:32;10.30;99.90
20740;DHT22;10530;49.968;19.844;2023-04-25T00:18:37;10.20;99.90
20740;DHT22;10530;49.968;19.844;2023-04-25T00:23:40;10.30;99.90
20740;DHT22;10530;49.968;19.844;2023-04-25T00:28:42;10.30;99.90
20740;DHT22;10530;49.968;19.844;2023-04-25T00:33:45;10.40;99.90
20740;DHT22;10530;49.968;19.844;2023-04-25T00:38:48;10.30;99.90
20740;DHT22;10530;49.968;19.844;2023-04-25T00:43:51;10.30;99.90
20740;DHT22;10530;49.968;19.844;2023-04-25T00:48:55;10.30;99.90
20740;DHT22;10530;49.968;19.844;2023-04-25T00:53:57;10.30;99.90
20740;DHT22;10530;49.968;19.844;2023-04-25T00:59:00;10.30;99.90
20740;DHT22;10530;49.968;19.844;2023-04-25T01:04:03;10.30;99.90
20740;DHT22;10530;49.968;19.844;2023-04-25T01:09:07;10.30;99.90
20740;DHT22;10530;49.968;19.844;2023-04-25T01:14:10;10.30;99.90
20740;DHT22;10530;49.968;19.844;2023-04-25T01:19:16;10.20;99.90
20740;DHT22;10530;49.968;19.844;2023-04-25T01:24:21;10.20;99.90
20740;DHT22;10530;49.968;19.844;2023-04-25T01:29:24;10.30;99.90
20740;DHT22;10530;49.968;19.844;2023-04-25T01:34:28;10.30;99.90
20740;DHT22;10530;49.968;19.844;2023-04-25T01:39:32;10.30;99.90
20740;DHT22;10530;49.968;19.844;2023-04-25T01:44:35;10.20;99.90
20740;DHT22;10530;49.968;19.844;2023-04-25T01:49:40;10.30;99.90
20740;DHT22;10530;49.968;19.844;2023-04-25T01:54:42;10.20;99.90
20740;DHT22;10530;49.968;19.844;2023-04-25T01:59:49;10.30;99.90
20740;DHT22;10530;49.968;19.844;2023-04-25T02:05:10;10.20;99.90
20740;DHT22;10530;49.968;19.844;2023-04-25T02:10:15;10.20;99.90
20740;DHT22;10530;49.968;19.844;2023-04-25T02:15:29;10.20;99.90
20740;DHT22;10530;49.968;19.844;2023-04-25T02:20:44;10.20;99.90
20740;DHT22;10530;49.968;19.844;2023-04-25T02:25:48;10.20;99.90
20740;DHT22;10530;49.968;19.844;2023-04-25T02:30:51;10.20;99.90
20740;DHT22;10530;49.968;19.844;2023-04-25T02:35:54;10.20;99.90
20740;DHT22;10530;49.968;19.844;2023-04-25T02:40:57;10.20;99.90
20740;DHT22;10530;49.968;19.844;2023-04-25T02:46:00;10.30;99.90
20740;DHT22;10530;49.968;19.844;2023-04-25T02:51:03;10.40;99.90
20740;DHT22;10530;49.968;19.844;2023-04-25T02:56:06;10.30;99.90
20740;DHT22;10530;49.968;19.844;2023-04-25T03:01:09;10.30;99.90
20740;DHT22;10530;49.968;19.844;2023-04-25T03:06:12;10.20;99.90
20740;DHT22;10530;49.968;19.844;2023-04-25T03:11:14;10.20;99.90
20740;DHT22;10530;49.968;19.844;2023-04-25T03:16:18;10.10;99.90
20740;DHT22;10530;49.968;19.844;2023-04-25T03:21:20;10.00;99.90
20740;DHT22;10530;49.968;19.844;2023-04-25T03:26:23;9.90;99.90
20740;DHT22;10530;49.968;19.844;2023-04-25T03:31:26;9.80;99.90
20740;DHT22;10530;49.968;19.844;2023-04-25T03:36:29;9.70;99.90
20740;DHT22;10530;49.968;19.844;2023-04-25T03:41:32;9.70;99.90
20740;DHT22;10530;49.968;19.844;2023-04-25T03:46:39;9.60;99.90
20740;DHT22;10530;49.968;19.844;2023-04-25T03:51:42;9.50;99.90
20740;DHT22;10530;49.968;19.844;2023-04-25T03:56:45;9.50;99.90
20740;DHT22;10530;49.968;19.844;2023-04-25T04:01:54;9.50;99.90
20740;DHT22;10530;49.968;19.844;2023-04-25T04:06:57;9.40;99.90
20740;DHT22;10530;49.968;19.844;2023-04-25T04:12:03;9.40;99.90
20740;DHT22;10530;49.968;19.844;2023-04-25T04:17:07;9.20;99.90
20740;DHT22;10530;49.968;19.844;2023-04-25T04:22:10;9.10;99.90
20740;DHT22;10530;49.968;19.844;2023-04-25T04:27:14;9.00;99.90
20740;DHT22;10530;49.968;19.844;2023-04-25T04:32:26;8.90;99.90
20740;DHT22;10530;49.968;19.844;2023-04-25T04:37:30;8.90;99.90
20740;DHT22;10530;49.968;19.844;2023-04-25T04:42:34;8.90;99.90
20740;DHT22;10530;49.968;19.844;2023-04-25T04:48:05;8.80;99.90
20740;DHT22;10530;49.968;19.844;2023-04-25T04:53:28;8.90;99.90
20740;DHT22;10530;49.968;19.844;2023-04-25T04:58:31;8.90;99.90
20740;DHT22;10530;49.968;19.844;2023-04-25T05:03:44;9.00;99.90
20740;DHT22;10530;49.968;19.844;2023-04-25T05:09:00;9.00;99.90
20740;DHT22;10530;49.968;19.844;2023-04-25T05:14:17;8.90;99.90
20740;DHT22;10530;49.968;19.844;2023-04-25T05:19:20;8.90;99.90
20740;DHT22;10530;49.968;19.844;2023-04-25T05:24:46;8.90;99.90
20740;DHT22;10530;49.968;19.844;2023-04-25T05:30:25;8.90;99.90
20740;DHT22;10530;49.968;19.844;2023-04-25T05:35:57;8.90;99.90
20740;DHT22;10530;49.968;19.844;2023-04-25T05:41:01;8.90;99.90
20740;DHT22;10530;49.968;19.844;2023-04-25T05:46:20;8.90;99.90
20740;DHT22;10530;49.968;19.844;2023-04-25T05:51:40;9.00;99.90
20740;DHT22;10530;49.968;19.844;2023-04-25T05:57:07;9.10;99.90
20740;DHT22;10530;49.968;19.844;2023-04-25T06:02:10;9.20;99.90
20740;DHT22;10530;49.968;19.844;2023-04-25T06:07:14;9.20;99.90
20740;DHT22;10530;49.968;19.844;2023-04-25T06:12:17;9.00;99.90
20740;DHT22;10530;49.968;19.844;2023-04-25T06:17:21;9.10;99.90
20740;DHT22;10530;49.968;19.844;2023-04-25T06:22:25;9.20;99.90
20740;DHT22;10530;49.968;19.844;2023-04-25T06:27:28;9.20;99.90
20740;DHT22;10530;49.968;19.844;2023-04-25T06:32:31;9.30;99.90
20740;DHT22;10530;49.968;19.844;2023-04-25T06:37:35;9.40;99.90
20740;DHT22;10530;49.968;19.844;2023-04-25T06:42:38;9.60;99.90
20740;DHT22;10530;49.968;19.844;2023-04-25T06:47:59;9.60;99.90
20740;DHT22;10530;49.968;19.844;2023-04-25T06:53:03;9.70;99.90
20740;DHT22;10530;49.968;19.844;2023-04-25T06:58:06;9.70;99.90
20740;DHT22;10530;49.968;19.844;2023-04-25T07:03:36;9.90;99.90
20740;DHT22;10530;49.968;19.844;2023-04-25T07:08:46;10.50;99.90
20740;DHT22;10530;49.968;19.844;2023-04-25T07:13:48;10.50;99.90
20740;DHT22;10530;49.968;19.844;2023-04-25T07:18:51;10.50;99.90
20740;DHT22;10530;49.968;19.844;2023-04-25T07:23:54;10.30;99.90
20740;DHT22;10530;49.968;19.844;2023-04-25T07:29:02;10.30;99.90
20740;DHT22;10530;49.968;19.844;2023-04-25T07:34:05;10.50;99.90
20740;DHT22;10530;49.968;19.844;2023-04-25T07:39:09;10.70;99.90
20740;DHT22;10530;49.968;19.844;2023-04-25T07:44:13;10.70;99.90
20740;DHT22;10530;49.968;19.844;2023-04-25T07:49:16;10.90;99.90
20740;DHT22;10530;49.968;19.844;2023-04-25T07:54:19;10.90;99.90
20740;DHT22;10530;49.968;19.844;2023-04-25T07:59:28;10.70;99.90
20740;DHT22;10530;49.968;19.844;2023-04-25T08:04:34;10.50;99.90
20740;DHT22;10530;49.968;19.844;2023-04-25T08:09:40;10.70;99.90
20740;DHT22;10530;49.968;19.844;2023-04-25T08:14:49;10.90;99.90
20740;DHT22;10530;49.968;19.844;2023-04-25T08:19:53;11.30;99.90
20740;DHT22;10530;49.968;19.844;2023-04-25T08:25:03;11.30;99.90
20740;DHT22;10530;49.968;19.844;2023-04-25T08:30:08;11.20;99.90
20740;DHT22;10530;49.968;19.844;2023-04-25T08:35:12;11.20;99.90
20740;DHT22;10530;49.968;19.844;2023-04-25T08:40:16;11.10;99.90
20740;DHT22;10530;49.968;19.844;2023-04-25T08:45:40;11.10;99.90
20740;DHT22;10530;49.968;19.844;2023-04-25T08:50:52;11.00;99.90
20740;DHT22;10530;49.968;19.844;2023-04-25T08:55:59;11.10;99.90
20740;DHT22;10530;49.968;19.844;2023-04-25T09:01:03;10.80;99.90
20740;DHT22;10530;49.968;19.844;2023-04-25T09:06:13;10.60;99.90
20740;DHT22;10530;49.968;19.844;2023-04-25T09:11:18;10.50;99.90
20740;DHT22;10530;49.968;19.844;2023-04-25T09:16:26;10.60;99.90
20740;DHT22;10530;49.968;19.844;2023-04-25T09:22:00;10.60;99.90
20740;DHT22;10530;49.968;19.844;2023-04-25T09:27:09;10.40;99.90
20740;DHT22;10530;49.968;19.844;2023-04-25T09:37:27;11.20;99.90
20740;DHT22;10530;49.968;19.844;2023-04-25T09:42:48;11.20;99.90
20740;DHT22;10530;49.968;19.844;2023-04-25T09:47:55;11.40;99.90
20740;DHT22;10530;49.968;19.844;2023-04-25T09:53:06;11.40;99.90
20740;DHT22;10530;49.968;19.844;2023-04-25T09:58:29;11.70;99.90
20740;DHT22;10530;49.968;19.844;2023-04-25T10:03:38;12.20;99.90
20740;DHT22;10530;49.968;19.844;2023-04-25T10:09:12;12.10;99.90
20740;DHT22;10530;49.968;19.844;2023-04-25T10:14:16;12.40;99.90
20740;DHT22;10530;49.968;19.844;2023-04-25T10:19:23;11.90;99.90
20740;DHT22;10530;49.968;19.844;2023-04-25T10:24:27;12.00;99.90
20740;DHT22;10530;49.968;19.844;2023-04-25T10:29:30;12.20;99.90
20740;DHT22;10530;49.968;19.844;2023-04-25T10:34:41;12.20;99.90
20740;DHT22;10530;49.968;19.844;2023-04-25T10:39:44;12.60;99.90
20740;DHT22;10530;49.968;19.844;2023-04-25T10:45:04;12.60;99.90
20740;DHT22;10530;49.968;19.844;2023-04-25T10:50:10;13.00;99.90
20740;DHT22;10530;49.968;19.844;2023-04-25T10:55:13;13.00;99.90
20740;DHT22;10530;49.968;19.844;2023-04-25T11:00:18;13.40;99.90
20740;DHT22;10530;49.968;19.844;2023-04-25T11:05:35;13.30;99.90
20740;DHT22;10530;49.968;19.844;2023-04-25T11:10:59;13.30;99.90
20740;DHT22;10530;49.968;19.844;2023-04-25T11:16:02;13.50;99.90
20740;DHT22;10530;49.968;19.844;2023-04-25T11:21:14;13.00;99.90
20740;DHT22;10530;49.968;19.844;2023-04-25T11:26:19;12.70;99.90
20740;DHT22;10530;49.968;19.844;2023-04-25T11:31:24;12.40;99.90
20740;DHT22;10530;49.968;19.844;2023-04-25T11:36:28;12.30;99.90
20740;DHT22;10530;49.968;19.844;2023-04-25T11:41:31;12.30;99.90
20740;DHT22;10530;49.968;19.844;2023-04-25T11:46:34;11.90;99.90
20740;DHT22;10530;49.968;19.844;2023-04-25T11:51:43;11.80;99.90
20740;DHT22;10530;49.968;19.844;2023-04-25T11:56:46;11.80;99.90
20740;DHT22;10530;49.968;19.844;2023-04-25T12:01:50;11.80;99.90
20740;DHT22;10530;49.968;19.844;2023-04-25T12:06:54;11.60;99.90
20740;DHT22;10530;49.968;19.844;2023-04-25T12:11:59;11.30;99.90
20740;DHT22;10530;49.968;19.844;2023-04-25T12:17:06;11.30;99.90
20740;DHT22;10530;49.968;19.844;2023-04-25T12:22:22;11.10;99.90
20740;DHT22;10530;49.968;19.844;2023-04-25T12:27:26;11.00;99.90
20740;DHT22;10530;49.968;19.844;2023-04-25T12:32:31;11.00;99.90
20740;DHT22;10530;49.968;19.844;2023-04-25T12:37:34;11.00;99.90
20740;DHT22;10530;49.968;19.844;2023-04-25T12:42:36;10.90;99.90
20740;DHT22;10530;49.968;19.844;2023-04-25T12:47:39;11.10;99.90
20740;DHT22;10530;49.968;19.844;2023-04-25T12:52:42;11.00;99.90
20740;DHT22;10530;49.968;19.844;2023-04-25T12:57:45;10.90;99.90
20740;DHT22;10530;49.968;19.844;2023-04-25T13:02:49;11.10;99.90
20740;DHT22;10530;49.968;19.844;2023-04-25T13:07:52;11.00;99.90
20740;DHT22;10530;49.968;19.844;2023-04-25T13:12:55;11.00;99.90
20740;DHT22;10530;49.968;19.844;2023-04-25T13:17:58;10.70;99.90
20740;DHT22;10530;49.968;19.844;2023-04-25T13:23:01;10.50;99.90
20740;DHT22;10530;49.968;19.844;2023-04-25T13:28:04;10.40;99.90
20740;DHT22;10530;49.968;19.844;2023-04-25T13:33:07;10.50;99.90
20740;DHT22;10530;49.968;19.844;2023-04-25T13:38:10;10.50;99.90
20740;DHT22;10530;49.968;19.844;2023-04-25T13:43:13;10.40;99.90
20740;DHT22;10530;49.968;19.844;2023-04-25T13:48:17;10.30;99.90
20740;DHT22;10530;49.968;19.844;2023-04-25T13:53:20;10.40;99.90
20740;DHT22;10530;49.968;19.844;2023-04-25T13:58:23;10.50;99.90
20740;DHT22;10530;49.968;19.844;2023-04-25T14:03:26;10.80;99.90
20740;DHT22;10530;49.968;19.844;2023-04-25T14:08:29;10.70;99.90
20740;DHT22;10530;49.968;19.844;2023-04-25T14:13:32;10.60;99.90
20740;DHT22;10530;49.968;19.844;2023-04-25T14:18:35;10.40;99.90
20740;DHT22;10530;49.968;19.844;2023-04-25T14:23:38;10.10;99.90
20740;DHT22;10530;49.968;19.844;2023-04-25T14:28:40;10.00;99.90
20740;DHT22;10530;49.968;19.844;2023-04-25T14:33:43;10.10;99.90
20740;DHT22;10530;49.968;19.844;2023-04-25T14:38:46;10.30;99.90
20740;DHT22;10530;49.968;19.844;2023-04-25T14:43:49;10.60;99.90
20740;DHT22;10530;49.968;19.844;2023-04-25T14:48:53;10.30;99.90
20740;DHT22;10530;49.968;19.844;2023-04-25T14:53:58;10.40;99.90
20740;DHT22;10530;49.968;19.844;2023-04-25T14:59:01;10.50;99.90
20740;DHT22;10530;49.968;19.844;2023-04-25T15:04:04;10.60;99.90
20740;DHT22;10530;49.968;19.844;2023-04-25T15:09:07;10.80;99.90
20740;DHT22;10530;49.968;19.844;2023-04-25T15:14:11;11.10;99.90
20740;DHT22;10530;49.968;19.844;2023-04-25T15:19:14;11.30;99.90
20740;DHT22;10530;49.968;19.844;2023-04-25T15:24:18;11.30;99.90
20740;DHT22;10530;49.968;19.844;2023-04-25T15:29:20;11.40;99.90
20740;DHT22;10530;49.968;19.844;2023-04-25T15:34:23;11.30;99.90
20740;DHT22;10530;49.968;19.844;2023-04-25T15:39:26;11.70;99.90
20740;DHT22;10530;49.968;19.844;2023-04-25T15:44:29;12.10;99.90
20740;DHT22;10530;49.968;19.844;2023-04-25T15:49:32;12.20;99.90
20740;DHT22;10530;49.968;19.844;2023-04-25T15:54:35;12.20;99.90
20740;DHT22;10530;49.968;19.844;2023-04-25T15:59:38;12.00;99.90
20740;DHT22;10530;49.968;19.844;2023-04-25T16:04:41;12.00;99.90
20740;DHT22;10530;49.968;19.844;2023-04-25T16:09:44;12.10;99.90
20740;DHT22;10530;49.968;19.844;2023-04-25T16:14:48;11.90;99.90
20740;DHT22;10530;49.968;19.844;2023-04-25T16:19:51;11.80;99.90
20740;DHT22;10530;49.968;19.844;2023-04-25T16:24:53;11.60;99.90
20740;DHT22;10530;49.968;19.844;2023-04-25T16:29:56;11.60;99.90
20740;DHT22;10530;49.968;19.844;2023-04-25T16:34:59;11.50;99.90
20740;DHT22;10530;49.968;19.844;2023-04-25T16:40:02;11.60;99.90
20740;DHT22;10530;49.968;19.844;2023-04-25T16:45:07;11.50;99.90
20740;DHT22;10530;49.968;19.844;2023-04-25T16:50:13;11.50;99.90
20740;DHT22;10530;49.968;19.844;2023-04-25T16:55:16;11.50;99.90
20740;DHT22;10530;49.968;19.844;2023-04-25T17:00:19;11.60;99.90
20740;DHT22;10530;49.968;19.844;2023-04-25T17:05:24;11.70;99.90
20740;DHT22;10530;49.968;19.844;2023-04-25T17:10:27;11.50;99.90
20740;DHT22;10530;49.968;19.844;2023-04-25T17:15:30;11.20;99.90
20740;DHT22;10530;49.968;19.844;2023-04-25T17:20:36;11.00;99.90
20740;DHT22;10530;49.968;19.844;2023-04-25T17:25:38;10.70;99.90
20740;DHT22;10530;49.968;19.844;2023-04-25T17:30:42;10.30;99.90
20740;DHT22;10530;49.968;19.844;2023-04-25T17:35:46;10.00;99.90
20740;DHT22;10530;49.968;19.844;2023-04-25T17:40:49;9.90;99.90
20740;DHT22;10530;49.968;19.844;2023-04-25T17:45:52;10.00;99.90
20740;DHT22;10530;49.968;19.844;2023-04-25T17:50:55;10.10;99.90
20740;DHT22;10530;49.968;19.844;2023-04-25T17:55:58;10.10;99.90
20740;DHT22;10530;49.968;19.844;2023-04-25T18:01:00;10.00;99.90
20740;DHT22;10530;49.968;19.844;2023-04-25T18:06:05;9.90;99.90
20740;DHT22;10530;49.968;19.844;2023-04-25T18:11:08;9.80;99.90
20740;DHT22;10530;49.968;19.844;2023-04-25T18:16:11;9.50;99.90
20740;DHT22;10530;49.968;19.844;2023-04-25T18:21:14;9.10;99.90
20740;DHT22;10530;49.968;19.844;2023-04-25T18:26:17;8.80;99.90
20740;DHT22;10530;49.968;19.844;2023-04-25T18:31:21;8.50;99.90
20740;DHT22;10530;49.968;19.844;2023-04-25T18:36:26;8.30;99.90
20740;DHT22;10530;49.968;19.844;2023-04-25T18:41:30;8.00;99.90
20740;DHT22;10530;49.968;19.844;2023-04-25T18:46:53;7.90;99.90
20740;DHT22;10530;49.968;19.844;2023-04-25T18:51:56;7.60;99.90
20740;DHT22;10530;49.968;19.844;2023-04-25T18:56:59;7.40;99.90
20740;DHT22;10530;49.968;19.844;2023-04-25T19:02:02;7.20;99.90
20740;DHT22;10530;49.968;19.844;2023-04-25T19:07:07;7.00;99.90
20740;DHT22;10530;49.968;19.844;2023-04-25T19:12:10;6.70;99.90
20740;DHT22;10530;49.968;19.844;2023-04-25T19:17:12;6.70;99.90
20740;DHT22;10530;49.968;19.844;2023-04-25T19:22:15;6.40;99.90
20740;DHT22;10530;49.968;19.844;2023-04-25T19:27:18;6.30;99.90
20740;DHT22;10530;49.968;19.844;2023-04-25T19:32:21;6.10;99.90
20740;DHT22;10530;49.968;19.844;2023-04-25T19:37:24;6.10;99.90
20740;DHT22;10530;49.968;19.844;2023-04-25T19:42:27;5.90;99.90
20740;DHT22;10530;49.968;19.844;2023-04-25T19:47:29;5.70;99.90
20740;DHT22;10530;49.968;19.844;2023-04-25T19:52:33;5.70;99.90
20740;DHT22;10530;49.968;19.844;2023-04-25T19:57:36;5.50;99.90
20740;DHT22;10530;49.968;19.844;2023-04-25T20:02:40;5.50;99.90
20740;DHT22;10530;49.968;19.844;2023-04-25T20:07:44;5.50;99.90
20740;DHT22;10530;49.968;19.844;2023-04-25T20:12:47;5.50;99.90
20740;DHT22;10530;49.968;19.844;2023-04-25T20:17:51;5.60;99.90
20740;DHT22;10530;49.968;19.844;2023-04-25T20:22:54;5.70;99.90
20740;DHT22;10530;49.968;19.844;2023-04-25T20:27:57;5.80;99.90
20740;DHT22;10530;49.968;19.844;2023-04-25T20:33:00;5.90;99.90
20740;DHT22;10530;49.968;19.844;2023-04-25T20:38:03;6.00;99.90
20740;DHT22;10530;49.968;19.844;2023-04-25T20:43:06;6.00;99.90
20740;DHT22;10530;49.968;19.844;2023-04-25T20:48:12;5.90;99.90
20740;DHT22;10530;49.968;19.844;2023-04-25T20:53:15;6.00;99.90
20740;DHT22;10530;49.968;19.844;2023-04-25T20:58:18;6.00;99.90
20740;DHT22;10530;49.968;19.844;2023-04-25T21:03:22;6.00;99.90
20740;DHT22;10530;49.968;19.844;2023-04-25T21:08:24;5.90;99.90
20740;DHT22;10530;49.968;19.844;2023-04-25T21:13:28;5.80;99.90
20740;DHT22;10530;49.968;19.844;2023-04-25T21:18:31;5.80;99.90
20740;DHT22;10530;49.968;19.844;2023-04-25T21:23:36;5.70;99.90
20740;DHT22;10530;49.968;19.844;2023-04-25T21:28:38;5.70;99.90
20740;DHT22;10530;49.968;19.844;2023-04-25T21:33:41;5.90;99.90
20740;DHT22;10530;49.968;19.844;2023-04-25T21:38:44;6.00;99.90
20740;DHT22;10530;49.968;19.844;2023-04-25T21:43:46;6.20;99.90
20740;DHT22;10530;49.968;19.844;2023-04-25T21:48:49;6.20;99.90
20740;DHT22;10530;49.968;19.844;2023-04-25T21:53:53;6.50;99.90
20740;DHT22;10530;49.968;19.844;2023-04-25T21:58:56;6.50;99.90
20740;DHT22;10530;49.968;19.844;2023-04-25T22:03:58;6.80;99.90
20740;DHT22;10530;49.968;19.844;2023-04-25T22:09:01;6.90;99.90
20740;DHT22;10530;49.968;19.844;2023-04-25T22:14:06;7.20;99.90
20740;DHT22;10530;49.968;19.844;2023-04-25T22:19:09;7.30;99.90
20740;DHT22;10530;49.968;19.844;2023-04-25T22:24:12;7.50;99.90
20740;DHT22;10530;49.968;19.844;2023-04-25T22:29:15;7.60;99.90
20740;DHT22;10530;49.968;19.844;2023-04-25T22:34:18;7.60;99.90
20740;DHT22;10530;49.968;19.844;2023-04-25T22:39:20;7.70;99.90
20740;DHT22;10530;49.968;19.844;2023-04-25T22:44:23;7.70;99.90
20740;DHT22;10530;49.968;19.844;2023-04-25T22:49:26;7.70;99.90
20740;DHT22;10530;49.968;19.844;2023-04-25T22:54:29;7.70;99.90
20740;DHT22;10530;49.968;19.844;2023-04-25T22:59:31;7.80;99.90
20740;DHT22;10530;49.968;19.844;2023-04-25T23:04:34;7.80;99.90
20740;DHT22;10530;49.968;19.844;2023-04-25T23:09:37;7.80;99.90
20740;DHT22;10530;49.968;19.844;2023-04-25T23:14:40;7.80;99.90
20740;DHT22;10530;49.968;19.844;2023-04-25T23:19:44;7.80;99.90
20740;DHT22;10530;49.968;19.844;2023-04-25T23:24:48;7.80;99.90
20740;DHT22;10530;49.968;19.844;2023-04-25T23:29:51;7.70;99.90
20740;DHT22;10530;49.968;19.844;2023-04-25T23:34:56;7.70;99.90
20740;DHT22;10530;49.968;19.844;2023-04-25T23:39:59;7.70;99.90
20740;DHT22;10530;49.968;19.844;2023-04-25T23:45:02;7.70;99.90
20740;DHT22;10530;49.968;19.844;2023-04-25T23:50:07;7.70;99.90
20740;DHT22;10530;49.968;19.844;2023-04-25T23:55:09;7.70;99.90
